sensor_id;sensor_type;location;lat;lon;timestamp;P1;durP1;ratioP1;P2;durP2;ratioP2
13415;SDS011;6779;50.150;8.680;2024-03-06T00:01:46;14.03;;;10.90;;
13415;SDS011;6779;50.150;8.680;2024-03-06T00:04:12;15.53;;;12.20;;
13415;SDS011;6779;50.150;8.680;2024-03-06T00:06:37;15.13;;;11.43;;
13415;SDS011;6779;50.150;8.680;2024-03-06T00:09:03;16.13;;;11.10;;
13415;SDS011;6779;50.150;8.680;2024-03-06T00:11:28;15.20;;;11.33;;
13415;SDS011;6779;50.150;8.680;2024-03-06T00:13:53;13.97;;;11.07;;
13415;SDS011;6779;50.150;8.680;2024-03-06T00:16:19;13.10;;;10.60;;
13415;SDS011;6779;50.150;8.680;2024-03-06T00:18:45;15.80;;;11.07;;
13415;SDS011;6779;50.150;8.680;2024-03-06T00:21:10;12.10;;;10.23;;
13415;SDS011;6779;50.150;8.680;2024-03-06T00:23:35;14.20;;;10.87;;
13415;SDS011;6779;50.150;8.680;2024-03-06T00:26:02;16.23;;;11.80;;
13415;SDS011;6779;50.150;8.680;2024-03-06T00:28:28;14.70;;;12.33;;
13415;SDS011;6779;50.150;8.680;2024-03-06T00:30:53;17.10;;;11.63;;
13415;SDS011;6779;50.150;8.680;2024-03-06T00:33:18;17.67;;;11.70;;
13415;SDS011;6779;50.150;8.680;2024-03-06T00:35:43;14.73;;;11.30;;
13415;SDS011;6779;50.150;8.680;2024-03-06T00:38:09;14.93;;;10.90;;
13415;SDS011;6779;50.150;8.680;2024-03-06T00:40:34;15.63;;;11.67;;
13415;SDS011;6779;50.150;8.680;2024-03-06T00:42:59;14.17;;;11.27;;
13415;SDS011;6779;50.150;8.680;2024-03-06T00:45:25;16.83;;;11.87;;
13415;SDS011;6779;50.150;8.680;2024-03-06T00:47:50;15.47;;;11.27;;
13415;SDS011;6779;50.150;8.680;2024-03-06T00:50:16;14.73;;;11.63;;
13415;SDS011;6779;50.150;8.680;2024-03-06T00:52:44;15.40;;;11.23;;
13415;SDS011;6779;50.150;8.680;2024-03-06T00:55:10;15.87;;;12.00;;
13415;SDS011;6779;50.150;8.680;2024-03-06T00:57:35;15.80;;;11.60;;
13415;SDS011;6779;50.150;8.680;2024-03-06T01:00:01;16.27;;;11.17;;
13415;SDS011;6779;50.150;8.680;2024-03-06T01:02:31;13.90;;;10.97;;
13415;SDS011;6779;50.150;8.680;2024-03-06T01:04:56;13.70;;;10.23;;
13415;SDS011;6779;50.150;8.680;2024-03-06T01:07:21;16.00;;;11.03;;
13415;SDS011;6779;50.150;8.680;2024-03-06T01:09:47;14.07;;;10.80;;
13415;SDS011;6779;50.150;8.680;2024-03-06T01:12:12;16.17;;;11.60;;
13415;SDS011;6779;50.150;8.680;2024-03-06T01:14:37;15.53;;;11.40;;
13415;SDS011;6779;50.150;8.680;2024-03-06T01:17:03;17.17;;;11.83;;
13415;SDS011;6779;50.150;8.680;2024-03-06T01:19:28;15.90;;;12.10;;
13415;SDS011;6779;50.150;8.680;2024-03-06T01:21:53;15.47;;;11.87;;
13415;SDS011;6779;50.150;8.680;2024-03-06T01:24:19;15.63;;;11.27;;
13415;SDS011;6779;50.150;8.680;2024-03-06T01:26:44;16.90;;;11.93;;
13415;SDS011;6779;50.150;8.680;2024-03-06T01:29:09;16.00;;;11.47;;
13415;SDS011;6779;50.150;8.680;2024-03-06T01:31:34;14.60;;;11.33;;
13415;SDS011;6779;50.150;8.680;2024-03-06T01:34:00;15.90;;;11.60;;
13415;SDS011;6779;50.150;8.680;2024-03-06T01:36:25;14.50;;;10.27;;
13415;SDS011;6779;50.150;8.680;2024-03-06T01:38:50;18.87;;;11.10;;
13415;SDS011;6779;50.150;8.680;2024-03-06T01:41:16;16.53;;;11.53;;
13415;SDS011;6779;50.150;8.680;2024-03-06T01:43:41;16.13;;;12.17;;
13415;SDS011;6779;50.150;8.680;2024-03-06T01:46:07;16.17;;;11.63;;
13415;SDS011;6779;50.150;8.680;2024-03-06T01:48:32;15.20;;;11.13;;
13415;SDS011;6779;50.150;8.680;2024-03-06T01:50:59;13.03;;;11.20;;
13415;SDS011;6779;50.150;8.680;2024-03-06T01:53:26;14.93;;;11.37;;
13415;SDS011;6779;50.150;8.680;2024-03-06T01:55:52;15.63;;;11.57;;
13415;SDS011;6779;50.150;8.680;2024-03-06T01:58:17;15.33;;;11.70;;
13415;SDS011;6779;50.150;8.680;2024-03-06T02:00:43;17.53;;;12.20;;
13415;SDS011;6779;50.150;8.680;2024-03-06T02:03:08;18.27;;;12.43;;
13415;SDS011;6779;50.150;8.680;2024-03-06T02:05:34;15.70;;;11.27;;
13415;SDS011;6779;50.150;8.680;2024-03-06T02:08:00;13.53;;;11.00;;
13415;SDS011;6779;50.150;8.680;2024-03-06T02:10:26;19.57;;;11.87;;
13415;SDS011;6779;50.150;8.680;2024-03-06T02:12:52;18.70;;;12.43;;
13415;SDS011;6779;50.150;8.680;2024-03-06T02:15:18;18.90;;;11.90;;
13415;SDS011;6779;50.150;8.680;2024-03-06T02:17:43;19.43;;;12.60;;
13415;SDS011;6779;50.150;8.680;2024-03-06T02:20:09;17.00;;;12.43;;
13415;SDS011;6779;50.150;8.680;2024-03-06T02:22:37;16.23;;;11.47;;
13415;SDS011;6779;50.150;8.680;2024-03-06T02:25:03;15.83;;;11.87;;
13415;SDS011;6779;50.150;8.680;2024-03-06T02:27:29;16.63;;;11.63;;
13415;SDS011;6779;50.150;8.680;2024-03-06T02:29:55;15.50;;;11.37;;
13415;SDS011;6779;50.150;8.680;2024-03-06T02:32:20;16.03;;;11.17;;
13415;SDS011;6779;50.150;8.680;2024-03-06T02:34:46;15.23;;;11.73;;
13415;SDS011;6779;50.150;8.680;2024-03-06T02:37:11;14.77;;;11.90;;
13415;SDS011;6779;50.150;8.680;2024-03-06T02:39:37;15.53;;;11.63;;
13415;SDS011;6779;50.150;8.680;2024-03-06T02:42:02;16.30;;;12.23;;
13415;SDS011;6779;50.150;8.680;2024-03-06T02:44:28;17.53;;;12.23;;
13415;SDS011;6779;50.150;8.680;2024-03-06T02:46:54;17.07;;;12.67;;
13415;SDS011;6779;50.150;8.680;2024-03-06T02:49:19;16.93;;;12.30;;
13415;SDS011;6779;50.150;8.680;2024-03-06T02:51:45;17.47;;;12.77;;
13415;SDS011;6779;50.150;8.680;2024-03-06T02:54:10;18.80;;;12.87;;
13415;SDS011;6779;50.150;8.680;2024-03-06T02:56:36;17.20;;;12.73;;
13415;SDS011;6779;50.150;8.680;2024-03-06T02:59:01;16.27;;;11.93;;
13415;SDS011;6779;50.150;8.680;2024-03-06T03:01:28;17.30;;;12.53;;
13415;SDS011;6779;50.150;8.680;2024-03-06T03:03:53;16.20;;;11.67;;
13415;SDS011;6779;50.150;8.680;2024-03-06T03:06:19;17.50;;;12.27;;
13415;SDS011;6779;50.150;8.680;2024-03-06T03:08:44;16.73;;;12.60;;
13415;SDS011;6779;50.150;8.680;2024-03-06T03:11:09;16.40;;;11.90;;
13415;SDS011;6779;50.150;8.680;2024-03-06T03:13:35;16.63;;;12.00;;
13415;SDS011;6779;50.150;8.680;2024-03-06T03:16:00;16.17;;;12.90;;
13415;SDS011;6779;50.150;8.680;2024-03-06T03:18:27;17.20;;;12.77;;
13415;SDS011;6779;50.150;8.680;2024-03-06T03:20:52;15.93;;;12.17;;
13415;SDS011;6779;50.150;8.680;2024-03-06T03:23:18;16.37;;;12.27;;
13415;SDS011;6779;50.150;8.680;2024-03-06T03:25:47;15.73;;;11.90;;
13415;SDS011;6779;50.150;8.680;2024-03-06T03:28:12;14.00;;;11.50;;
13415;SDS011;6779;50.150;8.680;2024-03-06T03:30:38;17.20;;;11.63;;
13415;SDS011;6779;50.150;8.680;2024-03-06T03:33:03;15.20;;;11.63;;
13415;SDS011;6779;50.150;8.680;2024-03-06T03:35:29;15.50;;;11.50;;
13415;SDS011;6779;50.150;8.680;2024-03-06T03:37:56;16.93;;;12.87;;
13415;SDS011;6779;50.150;8.680;2024-03-06T03:40:21;16.57;;;12.07;;
13415;SDS011;6779;50.150;8.680;2024-03-06T03:42:47;17.50;;;12.83;;
13415;SDS011;6779;50.150;8.680;2024-03-06T03:45:13;16.93;;;12.97;;
13415;SDS011;6779;50.150;8.680;2024-03-06T03:47:39;17.33;;;12.43;;
13415;SDS011;6779;50.150;8.680;2024-03-06T03:50:05;15.50;;;11.33;;
13415;SDS011;6779;50.150;8.680;2024-03-06T03:52:30;16.87;;;12.47;;
13415;SDS011;6779;50.150;8.680;2024-03-06T03:54:56;18.37;;;12.60;;
13415;SDS011;6779;50.150;8.680;2024-03-06T03:57:21;17.40;;;12.53;;
13415;SDS011;6779;50.150;8.680;2024-03-06T03:59:46;18.67;;;13.10;;
13415;SDS011;6779;50.150;8.680;2024-03-06T04:02:11;14.10;;;10.63;;
13415;SDS011;6779;50.150;8.680;2024-03-06T04:04:37;17.63;;;12.53;;
13415;SDS011;6779;50.150;8.680;2024-03-06T04:07:02;14.03;;;11.07;;
13415;SDS011;6779;50.150;8.680;2024-03-06T04:09:27;17.03;;;12.53;;
13415;SDS011;6779;50.150;8.680;2024-03-06T04:11:53;17.70;;;12.23;;
13415;SDS011;6779;50.150;8.680;2024-03-06T04:14:18;15.40;;;11.20;;
13415;SDS011;6779;50.150;8.680;2024-03-06T04:16:45;16.90;;;12.37;;
13415;SDS011;6779;50.150;8.680;2024-03-06T04:19:10;16.53;;;11.57;;
13415;SDS011;6779;50.150;8.680;2024-03-06T04:21:40;19.90;;;12.40;;
13415;SDS011;6779;50.150;8.680;2024-03-06T04:24:06;14.13;;;11.00;;
13415;SDS011;6779;50.150;8.680;2024-03-06T04:26:32;15.77;;;11.97;;
13415;SDS011;6779;50.150;8.680;2024-03-06T04:28:57;15.77;;;11.33;;
13415;SDS011;6779;50.150;8.680;2024-03-06T04:31:23;15.27;;;11.90;;
13415;SDS011;6779;50.150;8.680;2024-03-06T04:33:48;14.90;;;11.87;;
13415;SDS011;6779;50.150;8.680;2024-03-06T04:36:13;14.27;;;11.57;;
13415;SDS011;6779;50.150;8.680;2024-03-06T04:38:39;16.07;;;11.70;;
13415;SDS011;6779;50.150;8.680;2024-03-06T04:41:05;15.07;;;11.77;;
13415;SDS011;6779;50.150;8.680;2024-03-06T04:43:31;15.40;;;10.97;;
13415;SDS011;6779;50.150;8.680;2024-03-06T04:45:56;16.03;;;12.13;;
13415;SDS011;6779;50.150;8.680;2024-03-06T04:48:22;15.07;;;11.73;;
13415;SDS011;6779;50.150;8.680;2024-03-06T04:50:47;15.57;;;12.73;;
13415;SDS011;6779;50.150;8.680;2024-03-06T04:53:12;15.80;;;11.83;;
13415;SDS011;6779;50.150;8.680;2024-03-06T04:55:38;13.70;;;10.97;;
13415;SDS011;6779;50.150;8.680;2024-03-06T04:58:03;14.00;;;11.53;;
13415;SDS011;6779;50.150;8.680;2024-03-06T05:00:29;14.90;;;11.63;;
13415;SDS011;6779;50.150;8.680;2024-03-06T05:02:54;16.23;;;11.87;;
13415;SDS011;6779;50.150;8.680;2024-03-06T05:05:20;14.93;;;11.23;;
13415;SDS011;6779;50.150;8.680;2024-03-06T05:07:46;14.87;;;11.63;;
13415;SDS011;6779;50.150;8.680;2024-03-06T05:10:11;15.30;;;11.63;;
13415;SDS011;6779;50.150;8.680;2024-03-06T05:12:37;15.37;;;11.83;;
13415;SDS011;6779;50.150;8.680;2024-03-06T05:15:02;14.87;;;11.50;;
13415;SDS011;6779;50.150;8.680;2024-03-06T05:17:28;14.90;;;11.87;;
13415;SDS011;6779;50.150;8.680;2024-03-06T05:19:53;16.53;;;12.53;;
13415;SDS011;6779;50.150;8.680;2024-03-06T05:22:19;18.53;;;13.60;;
13415;SDS011;6779;50.150;8.680;2024-03-06T05:24:45;16.43;;;11.93;;
13415;SDS011;6779;50.150;8.680;2024-03-06T05:27:10;20.50;;;13.27;;
13415;SDS011;6779;50.150;8.680;2024-03-06T05:29:43;17.57;;;13.50;;
13415;SDS011;6779;50.150;8.680;2024-03-06T05:32:08;17.97;;;12.70;;
13415;SDS011;6779;50.150;8.680;2024-03-06T05:34:34;16.10;;;12.17;;
13415;SDS011;6779;50.150;8.680;2024-03-06T05:36:59;17.03;;;12.13;;
13415;SDS011;6779;50.150;8.680;2024-03-06T05:39:26;18.53;;;13.83;;
13415;SDS011;6779;50.150;8.680;2024-03-06T05:41:51;16.17;;;11.97;;
13415;SDS011;6779;50.150;8.680;2024-03-06T05:44:18;16.97;;;12.80;;
13415;SDS011;6779;50.150;8.680;2024-03-06T05:46:43;17.87;;;13.40;;
13415;SDS011;6779;50.150;8.680;2024-03-06T05:49:09;17.80;;;12.73;;
13415;SDS011;6779;50.150;8.680;2024-03-06T05:51:34;19.23;;;13.13;;
13415;SDS011;6779;50.150;8.680;2024-03-06T05:53:59;18.53;;;14.03;;
13415;SDS011;6779;50.150;8.680;2024-03-06T05:56:24;18.20;;;13.60;;
13415;SDS011;6779;50.150;8.680;2024-03-06T05:58:50;24.20;;;14.23;;
13415;SDS011;6779;50.150;8.680;2024-03-06T06:01:15;20.77;;;14.60;;
13415;SDS011;6779;50.150;8.680;2024-03-06T06:03:45;21.87;;;15.47;;
13415;SDS011;6779;50.150;8.680;2024-03-06T06:06:10;25.10;;;16.80;;
13415;SDS011;6779;50.150;8.680;2024-03-06T06:08:35;24.17;;;16.30;;
13415;SDS011;6779;50.150;8.680;2024-03-06T06:11:01;25.27;;;16.73;;
13415;SDS011;6779;50.150;8.680;2024-03-06T06:13:28;21.13;;;14.23;;
13415;SDS011;6779;50.150;8.680;2024-03-06T06:15:53;21.90;;;14.73;;
13415;SDS011;6779;50.150;8.680;2024-03-06T06:18:19;22.00;;;15.10;;
13415;SDS011;6779;50.150;8.680;2024-03-06T06:20:44;18.83;;;13.77;;
13415;SDS011;6779;50.150;8.680;2024-03-06T06:23:09;23.33;;;15.27;;
13415;SDS011;6779;50.150;8.680;2024-03-06T06:25:35;22.73;;;14.60;;
13415;SDS011;6779;50.150;8.680;2024-03-06T06:28:00;24.47;;;15.73;;
13415;SDS011;6779;50.150;8.680;2024-03-06T06:30:25;23.87;;;14.40;;
13415;SDS011;6779;50.150;8.680;2024-03-06T06:32:51;20.33;;;14.40;;
13415;SDS011;6779;50.150;8.680;2024-03-06T06:35:16;21.23;;;14.70;;
13415;SDS011;6779;50.150;8.680;2024-03-06T06:37:41;21.33;;;13.83;;
13415;SDS011;6779;50.150;8.680;2024-03-06T06:40:07;23.87;;;14.73;;
13415;SDS011;6779;50.150;8.680;2024-03-06T06:42:33;21.47;;;14.83;;
13415;SDS011;6779;50.150;8.680;2024-03-06T06:44:59;21.43;;;15.07;;
13415;SDS011;6779;50.150;8.680;2024-03-06T06:47:25;25.37;;;16.17;;
13415;SDS011;6779;50.150;8.680;2024-03-06T06:49:50;24.07;;;14.40;;
13415;SDS011;6779;50.150;8.680;2024-03-06T06:52:16;24.03;;;15.33;;
13415;SDS011;6779;50.150;8.680;2024-03-06T06:54:42;28.60;;;15.60;;
13415;SDS011;6779;50.150;8.680;2024-03-06T06:57:07;20.43;;;14.07;;
13415;SDS011;6779;50.150;8.680;2024-03-06T06:59:33;20.27;;;13.70;;
13415;SDS011;6779;50.150;8.680;2024-03-06T07:01:58;17.97;;;12.67;;
13415;SDS011;6779;50.150;8.680;2024-03-06T07:04:24;20.10;;;13.20;;
13415;SDS011;6779;50.150;8.680;2024-03-06T07:06:49;18.63;;;13.10;;
13415;SDS011;6779;50.150;8.680;2024-03-06T07:09:15;17.37;;;13.47;;
13415;SDS011;6779;50.150;8.680;2024-03-06T07:11:40;17.20;;;11.80;;
13415;SDS011;6779;50.150;8.680;2024-03-06T07:14:07;18.50;;;13.10;;
13415;SDS011;6779;50.150;8.680;2024-03-06T07:16:32;17.83;;;13.33;;
13415;SDS011;6779;50.150;8.680;2024-03-06T07:18:57;20.23;;;13.70;;
13415;SDS011;6779;50.150;8.680;2024-03-06T07:21:24;19.50;;;13.37;;
13415;SDS011;6779;50.150;8.680;2024-03-06T07:23:49;18.90;;;13.27;;
13415;SDS011;6779;50.150;8.680;2024-03-06T07:26:15;17.60;;;13.10;;
13415;SDS011;6779;50.150;8.680;2024-03-06T07:28:40;31.17;;;16.03;;
13415;SDS011;6779;50.150;8.680;2024-03-06T07:31:05;24.47;;;15.47;;
13415;SDS011;6779;50.150;8.680;2024-03-06T07:33:31;24.70;;;15.83;;
13415;SDS011;6779;50.150;8.680;2024-03-06T07:35:58;24.37;;;15.73;;
13415;SDS011;6779;50.150;8.680;2024-03-06T07:38:24;29.10;;;17.07;;
13415;SDS011;6779;50.150;8.680;2024-03-06T07:40:49;30.10;;;17.27;;
13415;SDS011;6779;50.150;8.680;2024-03-06T07:43:14;28.13;;;17.43;;
13415;SDS011;6779;50.150;8.680;2024-03-06T07:45:40;28.40;;;17.13;;
13415;SDS011;6779;50.150;8.680;2024-03-06T07:48:06;28.30;;;16.93;;
13415;SDS011;6779;50.150;8.680;2024-03-06T07:50:31;29.00;;;19.03;;
13415;SDS011;6779;50.150;8.680;2024-03-06T07:52:56;29.20;;;17.27;;
13415;SDS011;6779;50.150;8.680;2024-03-06T07:55:21;29.70;;;17.93;;
13415;SDS011;6779;50.150;8.680;2024-03-06T07:57:47;31.87;;;19.00;;
13415;SDS011;6779;50.150;8.680;2024-03-06T08:00:13;33.07;;;18.90;;
13415;SDS011;6779;50.150;8.680;2024-03-06T08:02:44;30.50;;;19.23;;
13415;SDS011;6779;50.150;8.680;2024-03-06T08:05:15;28.40;;;18.93;;
13415;SDS011;6779;50.150;8.680;2024-03-06T08:07:40;29.20;;;17.90;;
13415;SDS011;6779;50.150;8.680;2024-03-06T08:10:07;27.87;;;18.60;;
13415;SDS011;6779;50.150;8.680;2024-03-06T08:12:38;32.23;;;19.40;;
13415;SDS011;6779;50.150;8.680;2024-03-06T08:15:07;31.70;;;18.93;;
13415;SDS011;6779;50.150;8.680;2024-03-06T08:17:34;26.10;;;17.90;;
13415;SDS011;6779;50.150;8.680;2024-03-06T08:20:00;28.87;;;18.40;;
13415;SDS011;6779;50.150;8.680;2024-03-06T08:22:26;27.97;;;18.20;;
13415;SDS011;6779;50.150;8.680;2024-03-06T08:24:52;34.27;;;19.00;;
13415;SDS011;6779;50.150;8.680;2024-03-06T08:27:17;35.07;;;20.23;;
13415;SDS011;6779;50.150;8.680;2024-03-06T08:29:42;25.20;;;17.90;;
13415;SDS011;6779;50.150;8.680;2024-03-06T08:32:08;27.37;;;18.60;;
13415;SDS011;6779;50.150;8.680;2024-03-06T08:34:33;26.83;;;17.93;;
13415;SDS011;6779;50.150;8.680;2024-03-06T08:36:59;27.63;;;18.93;;
13415;SDS011;6779;50.150;8.680;2024-03-06T08:39:24;28.47;;;19.60;;
13415;SDS011;6779;50.150;8.680;2024-03-06T08:41:49;29.17;;;18.83;;
13415;SDS011;6779;50.150;8.680;2024-03-06T08:44:15;28.17;;;18.60;;
13415;SDS011;6779;50.150;8.680;2024-03-06T08:46:40;27.70;;;18.93;;
13415;SDS011;6779;50.150;8.680;2024-03-06T08:49:06;29.87;;;19.23;;
13415;SDS011;6779;50.150;8.680;2024-03-06T08:51:32;27.80;;;18.87;;
13415;SDS011;6779;50.150;8.680;2024-03-06T08:53:57;27.53;;;18.10;;
13415;SDS011;6779;50.150;8.680;2024-03-06T08:56:23;31.43;;;19.37;;
13415;SDS011;6779;50.150;8.680;2024-03-06T08:58:48;29.27;;;18.73;;
13415;SDS011;6779;50.150;8.680;2024-03-06T09:01:14;28.07;;;19.60;;
13415;SDS011;6779;50.150;8.680;2024-03-06T09:03:39;27.33;;;18.70;;
13415;SDS011;6779;50.150;8.680;2024-03-06T09:06:04;32.10;;;20.37;;
13415;SDS011;6779;50.150;8.680;2024-03-06T09:08:30;27.10;;;18.80;;
13415;SDS011;6779;50.150;8.680;2024-03-06T09:10:55;29.27;;;19.73;;
13415;SDS011;6779;50.150;8.680;2024-03-06T09:13:23;27.27;;;19.67;;
13415;SDS011;6779;50.150;8.680;2024-03-06T09:15:49;29.67;;;20.07;;
13415;SDS011;6779;50.150;8.680;2024-03-06T09:18:15;30.57;;;20.50;;
13415;SDS011;6779;50.150;8.680;2024-03-06T09:20:41;31.80;;;21.07;;
13415;SDS011;6779;50.150;8.680;2024-03-06T09:23:06;32.87;;;20.67;;
13415;SDS011;6779;50.150;8.680;2024-03-06T09:25:32;30.43;;;20.37;;
13415;SDS011;6779;50.150;8.680;2024-03-06T09:27:57;36.83;;;21.63;;
13415;SDS011;6779;50.150;8.680;2024-03-06T09:30:24;32.23;;;21.53;;
13415;SDS011;6779;50.150;8.680;2024-03-06T09:32:50;33.90;;;21.03;;
13415;SDS011;6779;50.150;8.680;2024-03-06T09:35:16;35.27;;;21.90;;
13415;SDS011;6779;50.150;8.680;2024-03-06T09:37:42;34.07;;;21.83;;
13415;SDS011;6779;50.150;8.680;2024-03-06T09:40:08;38.10;;;23.67;;
13415;SDS011;6779;50.150;8.680;2024-03-06T09:42:34;46.07;;;26.67;;
13415;SDS011;6779;50.150;8.680;2024-03-06T09:44:59;41.73;;;25.33;;
13415;SDS011;6779;50.150;8.680;2024-03-06T09:47:25;41.73;;;25.63;;
13415;SDS011;6779;50.150;8.680;2024-03-06T09:49:52;39.87;;;24.40;;
13415;SDS011;6779;50.150;8.680;2024-03-06T09:52:21;39.03;;;24.87;;
13415;SDS011;6779;50.150;8.680;2024-03-06T09:54:47;39.00;;;24.70;;
13415;SDS011;6779;50.150;8.680;2024-03-06T09:57:13;37.60;;;25.63;;
13415;SDS011;6779;50.150;8.680;2024-03-06T09:59:40;41.00;;;24.63;;
13415;SDS011;6779;50.150;8.680;2024-03-06T10:02:10;46.93;;;26.23;;
13415;SDS011;6779;50.150;8.680;2024-03-06T10:04:43;51.40;;;23.67;;
13415;SDS011;6779;50.150;8.680;2024-03-06T10:07:09;38.67;;;23.97;;
13415;SDS011;6779;50.150;8.680;2024-03-06T10:09:35;39.10;;;23.57;;
13415;SDS011;6779;50.150;8.680;2024-03-06T10:12:00;36.77;;;22.80;;
13415;SDS011;6779;50.150;8.680;2024-03-06T10:14:26;35.20;;;22.37;;
13415;SDS011;6779;50.150;8.680;2024-03-06T10:16:54;37.43;;;22.23;;
13415;SDS011;6779;50.150;8.680;2024-03-06T10:19:22;30.13;;;19.40;;
13415;SDS011;6779;50.150;8.680;2024-03-06T10:21:48;34.57;;;21.17;;
13415;SDS011;6779;50.150;8.680;2024-03-06T10:24:19;31.73;;;21.10;;
13415;SDS011;6779;50.150;8.680;2024-03-06T10:26:46;33.50;;;22.43;;
13415;SDS011;6779;50.150;8.680;2024-03-06T10:29:14;35.93;;;23.07;;
13415;SDS011;6779;50.150;8.680;2024-03-06T10:31:41;30.83;;;21.70;;
13415;SDS011;6779;50.150;8.680;2024-03-06T10:34:12;32.57;;;21.07;;
13415;SDS011;6779;50.150;8.680;2024-03-06T10:36:37;33.50;;;21.27;;
13415;SDS011;6779;50.150;8.680;2024-03-06T10:39:03;29.33;;;20.63;;
13415;SDS011;6779;50.150;8.680;2024-03-06T10:41:29;34.13;;;22.03;;
13415;SDS011;6779;50.150;8.680;2024-03-06T10:43:57;31.43;;;20.63;;
13415;SDS011;6779;50.150;8.680;2024-03-06T10:46:24;33.47;;;21.00;;
13415;SDS011;6779;50.150;8.680;2024-03-06T10:48:50;29.13;;;20.40;;
13415;SDS011;6779;50.150;8.680;2024-03-06T10:51:17;32.37;;;20.63;;
13415;SDS011;6779;50.150;8.680;2024-03-06T10:53:42;29.03;;;20.20;;
13415;SDS011;6779;50.150;8.680;2024-03-06T10:56:08;31.57;;;22.23;;
13415;SDS011;6779;50.150;8.680;2024-03-06T10:58:34;31.70;;;22.80;;
13415;SDS011;6779;50.150;8.680;2024-03-06T11:01:00;33.90;;;24.50;;
13415;SDS011;6779;50.150;8.680;2024-03-06T11:03:25;34.63;;;22.90;;
13415;SDS011;6779;50.150;8.680;2024-03-06T11:05:51;26.03;;;19.93;;
13415;SDS011;6779;50.150;8.680;2024-03-06T11:08:16;27.30;;;21.17;;
13415;SDS011;6779;50.150;8.680;2024-03-06T11:10:42;23.23;;;18.30;;
13415;SDS011;6779;50.150;8.680;2024-03-06T11:15:45;22.57;;;18.37;;
13415;SDS011;6779;50.150;8.680;2024-03-06T11:23:26;26.87;;;19.83;;
13415;SDS011;6779;50.150;8.680;2024-03-06T11:30:46;22.87;;;18.60;;
13415;SDS011;6779;50.150;8.680;2024-03-06T11:33:15;23.40;;;19.70;;
13415;SDS011;6779;50.150;8.680;2024-03-06T11:35:43;22.80;;;19.13;;
13415;SDS011;6779;50.150;8.680;2024-03-06T11:44:28;23.50;;;18.40;;
13415;SDS011;6779;50.150;8.680;2024-03-06T11:49:23;20.93;;;17.30;;
13415;SDS011;6779;50.150;8.680;2024-03-06T11:51:53;23.00;;;18.20;;
13415;SDS011;6779;50.150;8.680;2024-03-06T11:54:20;22.53;;;19.27;;
13415;SDS011;6779;50.150;8.680;2024-03-06T11:56:49;20.03;;;17.30;;
13415;SDS011;6779;50.150;8.680;2024-03-06T11:59:24;22.57;;;17.83;;
13415;SDS011;6779;50.150;8.680;2024-03-06T12:01:51;20.60;;;16.87;;
13415;SDS011;6779;50.150;8.680;2024-03-06T12:04:18;21.53;;;16.70;;
13415;SDS011;6779;50.150;8.680;2024-03-06T12:06:44;19.33;;;15.93;;
13415;SDS011;6779;50.150;8.680;2024-03-06T12:09:09;21.33;;;17.07;;
13415;SDS011;6779;50.150;8.680;2024-03-06T12:11:36;21.00;;;16.40;;
13415;SDS011;6779;50.150;8.680;2024-03-06T12:14:02;22.93;;;16.97;;
13415;SDS011;6779;50.150;8.680;2024-03-06T12:16:27;21.13;;;16.60;;
13415;SDS011;6779;50.150;8.680;2024-03-06T12:18:59;22.60;;;17.13;;
13415;SDS011;6779;50.150;8.680;2024-03-06T12:21:33;22.47;;;16.60;;
13415;SDS011;6779;50.150;8.680;2024-03-06T12:24:06;24.87;;;18.73;;
13415;SDS011;6779;50.150;8.680;2024-03-06T12:26:32;27.57;;;19.77;;
13415;SDS011;6779;50.150;8.680;2024-03-06T12:29:07;28.50;;;17.73;;
13415;SDS011;6779;50.150;8.680;2024-03-06T12:31:34;27.80;;;19.33;;
13415;SDS011;6779;50.150;8.680;2024-03-06T12:34:00;26.77;;;18.77;;
13415;SDS011;6779;50.150;8.680;2024-03-06T12:36:27;26.97;;;18.97;;
13415;SDS011;6779;50.150;8.680;2024-03-06T12:38:54;25.17;;;17.43;;
13415;SDS011;6779;50.150;8.680;2024-03-06T12:41:20;25.03;;;17.60;;
13415;SDS011;6779;50.150;8.680;2024-03-06T12:43:45;26.50;;;17.27;;
13415;SDS011;6779;50.150;8.680;2024-03-06T12:46:11;27.23;;;17.60;;
13415;SDS011;6779;50.150;8.680;2024-03-06T12:48:36;27.90;;;18.77;;
13415;SDS011;6779;50.150;8.680;2024-03-06T12:51:01;24.70;;;17.07;;
13415;SDS011;6779;50.150;8.680;2024-03-06T12:53:30;27.67;;;18.40;;
13415;SDS011;6779;50.150;8.680;2024-03-06T12:55:55;29.10;;;19.40;;
13415;SDS011;6779;50.150;8.680;2024-03-06T12:58:21;24.90;;;17.93;;
13415;SDS011;6779;50.150;8.680;2024-03-06T13:00:46;26.20;;;16.97;;
13415;SDS011;6779;50.150;8.680;2024-03-06T13:03:11;25.70;;;17.07;;
13415;SDS011;6779;50.150;8.680;2024-03-06T13:05:37;27.10;;;18.33;;
13415;SDS011;6779;50.150;8.680;2024-03-06T13:08:02;25.83;;;17.90;;
13415;SDS011;6779;50.150;8.680;2024-03-06T13:10:28;25.17;;;16.53;;
13415;SDS011;6779;50.150;8.680;2024-03-06T13:12:53;23.53;;;17.30;;
13415;SDS011;6779;50.150;8.680;2024-03-06T13:15:19;29.00;;;17.97;;
13415;SDS011;6779;50.150;8.680;2024-03-06T13:17:44;27.30;;;17.70;;
13415;SDS011;6779;50.150;8.680;2024-03-06T13:20:10;28.57;;;17.80;;
13415;SDS011;6779;50.150;8.680;2024-03-06T13:22:38;25.33;;;17.73;;
13415;SDS011;6779;50.150;8.680;2024-03-06T13:25:03;26.37;;;18.23;;
13415;SDS011;6779;50.150;8.680;2024-03-06T13:27:30;27.60;;;18.73;;
13415;SDS011;6779;50.150;8.680;2024-03-06T13:29:55;28.83;;;18.57;;
13415;SDS011;6779;50.150;8.680;2024-03-06T13:32:21;24.33;;;16.77;;
13415;SDS011;6779;50.150;8.680;2024-03-06T13:34:46;26.07;;;17.10;;
13415;SDS011;6779;50.150;8.680;2024-03-06T13:37:11;26.87;;;16.93;;
13415;SDS011;6779;50.150;8.680;2024-03-06T13:39:37;26.23;;;17.03;;
13415;SDS011;6779;50.150;8.680;2024-03-06T13:42:03;26.97;;;18.03;;
13415;SDS011;6779;50.150;8.680;2024-03-06T13:44:31;24.80;;;17.27;;
13415;SDS011;6779;50.150;8.680;2024-03-06T13:46:56;23.63;;;15.83;;
13415;SDS011;6779;50.150;8.680;2024-03-06T13:52:03;23.37;;;16.83;;
13415;SDS011;6779;50.150;8.680;2024-03-06T13:54:30;23.40;;;15.23;;
13415;SDS011;6779;50.150;8.680;2024-03-06T13:56:56;23.77;;;16.13;;
13415;SDS011;6779;50.150;8.680;2024-03-06T13:59:26;24.87;;;17.00;;
13415;SDS011;6779;50.150;8.680;2024-03-06T14:02:01;24.13;;;16.03;;
13415;SDS011;6779;50.150;8.680;2024-03-06T14:04:27;27.17;;;17.80;;
13415;SDS011;6779;50.150;8.680;2024-03-06T14:06:53;26.50;;;18.10;;
13415;SDS011;6779;50.150;8.680;2024-03-06T14:09:18;24.97;;;17.23;;
13415;SDS011;6779;50.150;8.680;2024-03-06T14:11:44;27.23;;;16.97;;
13415;SDS011;6779;50.150;8.680;2024-03-06T14:14:09;22.93;;;15.63;;
13415;SDS011;6779;50.150;8.680;2024-03-06T14:16:36;23.90;;;16.23;;
13415;SDS011;6779;50.150;8.680;2024-03-06T14:19:01;22.03;;;16.07;;
13415;SDS011;6779;50.150;8.680;2024-03-06T14:21:27;23.70;;;15.40;;
13415;SDS011;6779;50.150;8.680;2024-03-06T14:23:52;21.60;;;15.37;;
13415;SDS011;6779;50.150;8.680;2024-03-06T14:26:18;22.77;;;15.80;;
13415;SDS011;6779;50.150;8.680;2024-03-06T14:28:43;23.90;;;15.60;;
13415;SDS011;6779;50.150;8.680;2024-03-06T14:31:08;22.00;;;14.97;;
13415;SDS011;6779;50.150;8.680;2024-03-06T14:33:37;22.67;;;15.37;;
13415;SDS011;6779;50.150;8.680;2024-03-06T14:36:04;22.33;;;15.27;;
13415;SDS011;6779;50.150;8.680;2024-03-06T14:38:29;21.93;;;15.03;;
13415;SDS011;6779;50.150;8.680;2024-03-06T14:40:55;22.10;;;15.37;;
13415;SDS011;6779;50.150;8.680;2024-03-06T14:43:20;20.80;;;14.30;;
13415;SDS011;6779;50.150;8.680;2024-03-06T14:45:45;21.43;;;15.53;;
13415;SDS011;6779;50.150;8.680;2024-03-06T14:48:11;22.13;;;14.90;;
13415;SDS011;6779;50.150;8.680;2024-03-06T14:50:36;22.23;;;15.03;;